sensor_id;sensor_type;location;lat;lon;timestamp;pressure;altitude;pressure_sealevel;temperature;humidity
55685;BME280;41883;49.544;8.646;2023-05-10T00:00:20;99847.94;;;13.65;nan
55685;BME280;41883;49.544;8.646;2023-05-10T00:02:47;99860.41;;;13.65;nan
55685;BME280;41883;49.544;8.646;2023-05-10T00:05:13;99857.75;;;13.65;nan
55685;BME280;41883;49.544;8.646;2023-05-10T00:07:38;99856.56;;;13.67;nan
55685;BME280;41883;49.544;8.646;2023-05-10T00:10:03;99857.19;;;13.69;nan
55685;BME280;41883;49.544;8.646;2023-05-10T00:12:29;99857.19;;;13.69;nan
55685;BME280;41883;49.544;8.646;2023-05-10T00:14:54;99862.34;;;13.71;nan
55685;BME280;41883;49.544;8.646;2023-05-10T00:17:19;99855.81;;;13.73;nan
55685;BME280;41883;49.544;8.646;2023-05-10T00:19:45;99860.75;;;13.76;nan
55685;BME280;41883;49.544;8.646;2023-05-10T00:22:10;99862.19;;;13.79;nan
55685;BME280;41883;49.544;8.646;2023-05-10T00:24:35;99857.69;;;13.79;nan
55685;BME280;41883;49.544;8.646;2023-05-10T00:27:01;99863.22;;;13.78;nan
55685;BME280;41883;49.544;8.646;2023-05-10T00:29:29;99863.22;;;13.78;nan
55685;BME280;41883;49.544;8.646;2023-05-10T00:31:54;99865.88;;;13.78;nan
55685;BME280;41883;49.544;8.646;2023-05-10T00:34:20;99866.25;;;13.75;nan
55685;BME280;41883;49.544;8.646;2023-05-10T00:36:45;99868.47;;;13.71;nan
55685;BME280;41883;49.544;8.646;2023-05-10T00:39:10;99865.81;;;13.71;nan
55685;BME280;41883;49.544;8.646;2023-05-10T00:41:35;99866.44;;;13.73;nan
55685;BME280;41883;49.544;8.646;2023-05-10T00:44:00;99866.25;;;13.75;nan
55685;BME280;41883;49.544;8.646;2023-05-10T00:46:27;99869.28;;;13.72;nan
55685;BME280;41883;49.544;8.646;2023-05-10T00:48:53;99865.00;;;13.71;nan
55685;BME280;41883;49.544;8.646;2023-05-10T00:51:18;99864.53;;;13.67;nan
55685;BME280;41883;49.544;8.646;2023-05-10T00:53:45;99864.09;;;13.64;nan
55685;BME280;41883;49.544;8.646;2023-05-10T00:56:10;99862.44;;;13.63;nan
55685;BME280;41883;49.544;8.646;2023-05-10T00:58:35;99870.97;;;13.58;nan
55685;BME280;41883;49.544;8.646;2023-05-10T01:01:01;99871.72;;;13.52;nan
55685;BME280;41883;49.544;8.646;2023-05-10T01:03:27;99869.06;;;13.52;nan
55685;BME280;41883;49.544;8.646;2023-05-10T01:05:53;99874.56;;;13.50;nan
55685;BME280;41883;49.544;8.646;2023-05-10T01:08:18;99875.75;;;13.48;nan
55685;BME280;41883;49.544;8.646;2023-05-10T01:10:44;99871.28;;;13.48;nan
55685;BME280;41883;49.544;8.646;2023-05-10T01:13:09;99869.81;;;13.46;nan
55685;BME280;41883;49.544;8.646;2023-05-10T01:15:34;99873.50;;;13.45;nan
55685;BME280;41883;49.544;8.646;2023-05-10T01:18:00;99864.66;;;13.44;nan
55685;BME280;41883;49.544;8.646;2023-05-10T01:20:27;99871.19;;;13.42;nan
55685;BME280;41883;49.544;8.646;2023-05-10T01:31:03;99883.66;;;13.41;nan
55685;BME280;41883;49.544;8.646;2023-05-10T01:41:18;99883.38;;;13.36;nan
55685;BME280;41883;49.544;8.646;2023-05-10T01:43:58;99895.03;;;13.35;nan
55685;BME280;41883;49.544;8.646;2023-05-10T01:46:35;99890.44;;;13.29;nan
55685;BME280;41883;49.544;8.646;2023-05-10T01:49:02;99894.13;;;13.28;nan
55685;BME280;41883;49.544;8.646;2023-05-10T01:51:29;99893.44;;;13.26;nan
55685;BME280;41883;49.544;8.646;2023-05-10T01:54:00;99898.75;;;13.26;nan
55685;BME280;41883;49.544;8.646;2023-05-10T01:56:26;99900.59;;;13.25;nan
55685;BME280;41883;49.544;8.646;2023-05-10T01:58:53;99899.75;;;13.25;nan
55685;BME280;41883;49.544;8.646;2023-05-10T02:01:19;99895.28;;;13.25;nan
55685;BME280;41883;49.544;8.646;2023-05-10T02:03:45;99901.75;;;13.23;nan
55685;BME280;41883;49.544;8.646;2023-05-10T02:06:11;99899.31;;;13.21;nan
55685;BME280;41883;49.544;8.646;2023-05-10T02:08:37;99907.28;;;13.21;nan
55685;BME280;41883;49.544;8.646;2023-05-10T02:11:03;99904.25;;;13.24;nan
55685;BME280;41883;49.544;8.646;2023-05-10T02:13:29;99902.78;;;13.22;nan
55685;BME280;41883;49.544;8.646;2023-05-10T02:15:56;99908.72;;;13.24;nan
55685;BME280;41883;49.544;8.646;2023-05-10T02:18:22;99909.72;;;13.23;nan
55685;BME280;41883;49.544;8.646;2023-05-10T02:20:48;99914.22;;;13.22;nan
55685;BME280;41883;49.544;8.646;2023-05-10T02:23:14;99908.91;;;13.22;nan
55685;BME280;41883;49.544;8.646;2023-05-10T02:25:42;99915.03;;;13.23;nan
55685;BME280;41883;49.544;8.646;2023-05-10T02:28:08;99911.75;;;13.21;nan
55685;BME280;41883;49.544;8.646;2023-05-10T02:30:33;99917.06;;;13.21;nan
55685;BME280;41883;49.544;8.646;2023-05-10T02:32:59;99915.59;;;13.18;nan
55685;BME280;41883;49.544;8.646;2023-05-10T02:35:25;99909.66;;;13.16;nan
55685;BME280;41883;49.544;8.646;2023-05-10T02:37:51;99914.97;;;13.16;nan
55685;BME280;41883;49.544;8.646;2023-05-10T02:40:17;99922.09;;;13.15;nan
55685;BME280;41883;49.544;8.646;2023-05-10T02:42:44;99919.44;;;13.15;nan
55685;BME280;41883;49.544;8.646;2023-05-10T02:45:11;99908.63;;;13.17;nan
55685;BME280;41883;49.544;8.646;2023-05-10T02:47:37;99923.56;;;13.18;nan
55685;BME280;41883;49.544;8.646;2023-05-10T02:50:02;99918.88;;;13.20;nan
55685;BME280;41883;49.544;8.646;2023-05-10T02:52:30;99924.00;;;13.22;nan
55685;BME280;41883;49.544;8.646;2023-05-10T02:55:02;99921.38;;;13.22;nan
55685;BME280;41883;49.544;8.646;2023-05-10T02:57:28;99913.22;;;13.23;nan
55685;BME280;41883;49.544;8.646;2023-05-10T02:59:56;99912.59;;;13.21;nan
55685;BME280;41883;49.544;8.646;2023-05-10T03:02:22;99921.53;;;13.20;nan
55685;BME280;41883;49.544;8.646;2023-05-10T03:04:48;99923.19;;;13.21;nan
55685;BME280;41883;49.544;8.646;2023-05-10T03:07:14;99931.97;;;13.22;nan
55685;BME280;41883;49.544;8.646;2023-05-10T03:09:39;99926.50;;;13.23;nan
55685;BME280;41883;49.544;8.646;2023-05-10T03:17:06;99919.53;;;13.22;nan
55685;BME280;41883;49.544;8.646;2023-05-10T03:22:03;99923.19;;;13.21;nan
55685;BME280;41883;49.544;8.646;2023-05-10T03:24:29;99919.53;;;13.22;nan
55685;BME280;41883;49.544;8.646;2023-05-10T03:26:55;99930.16;;;13.22;nan
55685;BME280;41883;49.544;8.646;2023-05-10T03:29:21;99931.16;;;13.21;nan
55685;BME280;41883;49.544;8.646;2023-05-10T03:31:47;99931.16;;;13.21;nan
55685;BME280;41883;49.544;8.646;2023-05-10T03:34:13;99927.69;;;13.21;nan
55685;BME280;41883;49.544;8.646;2023-05-10T03:36:38;99928.50;;;13.21;nan
55685;BME280;41883;49.544;8.646;2023-05-10T03:39:03;99929.69;;;13.18;nan
55685;BME280;41883;49.544;8.646;2023-05-10T03:41:29;99929.69;;;13.18;nan
55685;BME280;41883;49.544;8.646;2023-05-10T03:43:54;99929.69;;;13.18;nan
55685;BME280;41883;49.544;8.646;2023-05-10T03:46:19;99933.56;;;13.16;nan
55685;BME280;41883;49.544;8.646;2023-05-10T03:48:44;99925.13;;;13.12;nan
55685;BME280;41883;49.544;8.646;2023-05-10T03:51:09;99929.97;;;13.09;nan
55685;BME280;41883;49.544;8.646;2023-05-10T03:53:35;99937.28;;;13.07;nan
55685;BME280;41883;49.544;8.646;2023-05-10T03:56:00;99931.16;;;13.06;nan
55685;BME280;41883;49.544;8.646;2023-05-10T03:58:25;99940.78;;;13.07;nan
55685;BME280;41883;49.544;8.646;2023-05-10T04:00:51;99938.13;;;13.07;nan
55685;BME280;41883;49.544;8.646;2023-05-10T04:03:16;99941.41;;;13.09;nan
55685;BME280;41883;49.544;8.646;2023-05-10T04:05:42;99934.66;;;13.07;nan
55685;BME280;41883;49.544;8.646;2023-05-10T04:08:07;99946.25;;;13.06;nan
55685;BME280;41883;49.544;8.646;2023-05-10T04:10:33;99942.59;;;13.07;nan
55685;BME280;41883;49.544;8.646;2023-05-10T04:12:58;99940.94;;;13.06;nan
55685;BME280;41883;49.544;8.646;2023-05-10T04:15:23;99946.63;;;13.03;nan
55685;BME280;41883;49.544;8.646;2023-05-10T04:17:49;99952.31;;;13.00;nan
55685;BME280;41883;49.544;8.646;2023-05-10T04:20:15;99955.28;;;12.96;nan
55685;BME280;41883;49.544;8.646;2023-05-10T04:22:40;99957.34;;;12.94;nan
55685;BME280;41883;49.544;8.646;2023-05-10T04:25:06;99960.00;;;12.94;nan
55685;BME280;41883;49.544;8.646;2023-05-10T04:27:31;99964.09;;;12.97;nan
55685;BME280;41883;49.544;8.646;2023-05-10T04:29:57;99961.09;;;13.00;nan
55685;BME280;41883;49.544;8.646;2023-05-10T04:32:22;99959.25;;;13.01;nan
55685;BME280;41883;49.544;8.646;2023-05-10T04:34:48;99962.38;;;13.04;nan
55685;BME280;41883;49.544;8.646;2023-05-10T04:37:13;99960.06;;;13.01;nan
55685;BME280;41883;49.544;8.646;2023-05-10T04:39:38;99968.66;;;13.03;nan
55685;BME280;41883;49.544;8.646;2023-05-10T04:42:04;99963.38;;;13.03;nan
55685;BME280;41883;49.544;8.646;2023-05-10T04:44:30;99968.50;;;13.05;nan
55685;BME280;41883;49.544;8.646;2023-05-10T04:46:56;99968.94;;;13.08;nan
55685;BME280;41883;49.544;8.646;2023-05-10T04:49:21;99973.25;;;13.09;nan
55685;BME280;41883;49.544;8.646;2023-05-10T04:51:46;99980.41;;;13.09;nan
55685;BME280;41883;49.544;8.646;2023-05-10T04:54:12;99979.41;;;13.10;nan
55685;BME280;41883;49.544;8.646;2023-05-10T04:56:37;99977.56;;;13.10;nan
55685;BME280;41883;49.544;8.646;2023-05-10T04:59:02;99980.41;;;13.09;nan
55685;BME280;41883;49.544;8.646;2023-05-10T05:01:27;99977.94;;;13.07;nan
55685;BME280;41883;49.544;8.646;2023-05-10T05:03:53;99987.53;;;13.08;nan
55685;BME280;41883;49.544;8.646;2023-05-10T05:06:18;99984.88;;;13.08;nan
55685;BME280;41883;49.544;8.646;2023-05-10T05:08:43;99986.16;;;13.12;nan
55685;BME280;41883;49.544;8.646;2023-05-10T05:11:09;99990.28;;;13.15;nan
55685;BME280;41883;49.544;8.646;2023-05-10T05:13:34;99994.94;;;13.13;nan
55685;BME280;41883;49.544;8.646;2023-05-10T05:16:00;99991.09;;;13.15;nan
55685;BME280;41883;49.544;8.646;2023-05-10T05:18:25;99994.22;;;13.19;nan
55685;BME280;41883;49.544;8.646;2023-05-10T05:20:51;99992.88;;;13.23;nan
55685;BME280;41883;49.544;8.646;2023-05-10T05:23:16;99999.47;;;13.27;nan
55685;BME280;41883;49.544;8.646;2023-05-10T05:25:41;99999.78;;;13.32;nan
55685;BME280;41883;49.544;8.646;2023-05-10T05:28:07;100000.88;;;13.38;nan
55685;BME280;41883;49.544;8.646;2023-05-10T05:30:32;100003.63;;;13.45;nan
55685;BME280;41883;49.544;8.646;2023-05-10T05:32:57;100002.06;;;13.50;nan
55685;BME280;41883;49.544;8.646;2023-05-10T05:35:22;100006.44;;;13.58;nan
55685;BME280;41883;49.544;8.646;2023-05-10T05:37:48;100009.19;;;13.65;nan
55685;BME280;41883;49.544;8.646;2023-05-10T05:40:13;100008.66;;;13.69;nan
55685;BME280;41883;49.544;8.646;2023-05-10T05:42:39;100013.97;;;13.69;nan
55685;BME280;41883;49.544;8.646;2023-05-10T05:45:04;100014.59;;;13.71;nan
55685;BME280;41883;49.544;8.646;2023-05-10T05:47:30;100013.56;;;13.72;nan
55685;BME280;41883;49.544;8.646;2023-05-10T05:49:55;100020.72;;;13.72;nan
55685;BME280;41883;49.544;8.646;2023-05-10T05:52:20;100016.06;;;13.74;nan
55685;BME280;41883;49.544;8.646;2023-05-10T05:54:46;100017.16;;;13.79;nan
55685;BME280;41883;49.544;8.646;2023-05-10T05:57:11;100021.09;;;13.84;nan
55685;BME280;41883;49.544;8.646;2023-05-10T05:59:37;100019.34;;;13.91;nan
55685;BME280;41883;49.544;8.646;2023-05-10T06:02:07;100022.63;;;13.93;nan
55685;BME280;41883;49.544;8.646;2023-05-10T06:04:32;100016.94;;;13.96;nan
55685;BME280;41883;49.544;8.646;2023-05-10T06:06:57;100026.56;;;13.97;nan
55685;BME280;41883;49.544;8.646;2023-05-10T06:09:22;100032.06;;;13.95;nan
55685;BME280;41883;49.544;8.646;2023-05-10T06:11:49;100037.75;;;13.92;nan
55685;BME280;41883;49.544;8.646;2023-05-10T06:14:14;100044.28;;;13.90;nan
55685;BME280;41883;49.544;8.646;2023-05-10T06:16:39;100042.63;;;13.89;nan
55685;BME280;41883;49.544;8.646;2023-05-10T06:19:05;100038.31;;;13.88;nan
55685;BME280;41883;49.544;8.646;2023-05-10T06:21:30;100038.97;;;13.90;nan
55685;BME280;41883;49.544;8.646;2023-05-10T06:23:55;100037.56;;;13.94;nan
55685;BME280;41883;49.544;8.646;2023-05-10T06:26:21;100036.66;;;14.01;nan
55685;BME280;41883;49.544;8.646;2023-05-10T06:28:46;100045.16;;;14.12;nan
55685;BME280;41883;49.544;8.646;2023-05-10T06:31:12;100049.34;;;14.21;nan
55685;BME280;41883;49.544;8.646;2023-05-10T06:33:37;100052.91;;;14.28;nan
55685;BME280;41883;49.544;8.646;2023-05-10T06:36:03;100052.34;;;14.33;nan
55685;BME280;41883;49.544;8.646;2023-05-10T06:38:28;100054.44;;;14.37;nan
55685;BME280;41883;49.544;8.646;2023-05-10T06:40:53;100051.84;;;14.44;nan
55685;BME280;41883;49.544;8.646;2023-05-10T06:43:18;100050.84;;;14.45;nan
55685;BME280;41883;49.544;8.646;2023-05-10T06:45:43;100046.06;;;14.55;nan
55685;BME280;41883;49.544;8.646;2023-05-10T06:48:08;100044.22;;;14.56;nan
55685;BME280;41883;49.544;8.646;2023-05-10T06:50:34;100059.19;;;14.57;nan
55685;BME280;41883;49.544;8.646;2023-05-10T06:52:59;100056.94;;;14.60;nan
55685;BME280;41883;49.544;8.646;2023-05-10T06:55:25;100062.28;;;14.60;nan
55685;BME280;41883;49.544;8.646;2023-05-10T06:57:50;100060.25;;;14.62;nan
55685;BME280;41883;49.544;8.646;2023-05-10T07:00:16;100060.19;;;14.56;nan
55685;BME280;41883;49.544;8.646;2023-05-10T07:02:41;100063.31;;;14.44;nan
55685;BME280;41883;49.544;8.646;2023-05-10T07:05:06;100073.41;;;14.49;nan
55685;BME280;41883;49.544;8.646;2023-05-10T07:07:32;100066.81;;;14.45;nan
55685;BME280;41883;49.544;8.646;2023-05-10T07:09:57;100071.47;;;14.43;nan
55685;BME280;41883;49.544;8.646;2023-05-10T07:12:23;100071.47;;;14.43;nan
55685;BME280;41883;49.544;8.646;2023-05-10T07:14:48;100066.53;;;14.40;nan
55685;BME280;41883;49.544;8.646;2023-05-10T07:17:13;100063.13;;;14.46;nan
55685;BME280;41883;49.544;8.646;2023-05-10T07:19:38;100072.19;;;14.52;nan
55685;BME280;41883;49.544;8.646;2023-05-10T07:22:03;100069.47;;;14.45;nan
55685;BME280;41883;49.544;8.646;2023-05-10T07:24:29;100070.34;;;14.52;nan
55685;BME280;41883;49.544;8.646;2023-05-10T07:26:54;100063.06;;;14.54;nan
55685;BME280;41883;49.544;8.646;2023-05-10T07:29:20;100069.81;;;14.57;nan
55685;BME280;41883;49.544;8.646;2023-05-10T07:31:45;100077.00;;;14.78;nan
55685;BME280;41883;49.544;8.646;2023-05-10T07:34:12;100068.72;;;14.94;nan
55685;BME280;41883;49.544;8.646;2023-05-10T07:36:37;100068.91;;;15.14;nan
55685;BME280;41883;49.544;8.646;2023-05-10T07:39:03;100075.16;;;15.28;nan
55685;BME280;41883;49.544;8.646;2023-05-10T07:41:30;100072.44;;;15.49;nan
55685;BME280;41883;49.544;8.646;2023-05-10T07:44:04;100074.41;;;15.69;nan
55685;BME280;41883;49.544;8.646;2023-05-10T07:46:29;100071.59;;;15.77;nan
55685;BME280;41883;49.544;8.646;2023-05-10T07:48:55;100072.69;;;15.83;nan
55685;BME280;41883;49.544;8.646;2023-05-10T07:51:20;100072.91;;;15.88;nan
55685;BME280;41883;49.544;8.646;2023-05-10T07:53:46;100075.84;;;16.00;nan
55685;BME280;41883;49.544;8.646;2023-05-10T07:56:24;100070.31;;;16.08;nan
55685;BME280;41883;49.544;8.646;2023-05-10T07:58:51;100080.88;;;16.29;nan
55685;BME280;41883;49.544;8.646;2023-05-10T08:01:16;100074.34;;;16.45;nan
55685;BME280;41883;49.544;8.646;2023-05-10T08:03:42;100075.81;;;16.68;nan
55685;BME280;41883;49.544;8.646;2023-05-10T08:06:07;100081.44;;;16.80;nan
55685;BME280;41883;49.544;8.646;2023-05-10T08:08:32;100077.53;;;16.89;nan
55685;BME280;41883;49.544;8.646;2023-05-10T08:10:57;100075.28;;;16.92;nan
55685;BME280;41883;49.544;8.646;2023-05-10T08:13:23;100073.44;;;17.00;nan
55685;BME280;41883;49.544;8.646;2023-05-10T08:15:48;100081.84;;;16.96;nan
55685;BME280;41883;49.544;8.646;2023-05-10T08:18:13;100081.44;;;16.80;nan
55685;BME280;41883;49.544;8.646;2023-05-10T08:20:38;100084.22;;;16.58;nan
55685;BME280;41883;49.544;8.646;2023-05-10T08:23:03;100072.94;;;16.49;nan
55685;BME280;41883;49.544;8.646;2023-05-10T08:25:28;100085.19;;;16.37;nan
55685;BME280;41883;49.544;8.646;2023-05-10T08:27:54;100081.53;;;16.45;nan
55685;BME280;41883;49.544;8.646;2023-05-10T08:30:19;100087.97;;;16.64;nan
55685;BME280;41883;49.544;8.646;2023-05-10T08:32:44;100083.03;;;16.67;nan
55685;BME280;41883;49.544;8.646;2023-05-10T08:35:10;100087.13;;;16.63;nan
55685;BME280;41883;49.544;8.646;2023-05-10T08:37:35;100086.03;;;16.44;nan
55685;BME280;41883;49.544;8.646;2023-05-10T08:40:00;100094.66;;;16.33;nan
55685;BME280;41883;49.544;8.646;2023-05-10T08:42:25;100097.06;;;16.28;nan
55685;BME280;41883;49.544;8.646;2023-05-10T08:44:53;100099.75;;;16.34;nan
55685;BME280;41883;49.544;8.646;2023-05-10T08:47:19;100098.78;;;16.49;nan
55685;BME280;41883;49.544;8.646;2023-05-10T08:49:45;100098.69;;;16.84;nan
55685;BME280;41883;49.544;8.646;2023-05-10T08:52:12;100097.03;;;17.49;nan
55685;BME280;41883;49.544;8.646;2023-05-10T08:54:38;100098.56;;;18.17;nan
55685;BME280;41883;49.544;8.646;2023-05-10T08:57:04;100099.50;;;18.81;nan
55685;BME280;41883;49.544;8.646;2023-05-10T08:59:29;100102.63;;;19.28;nan
55685;BME280;41883;49.544;8.646;2023-05-10T09:01:55;100096.72;;;19.69;nan
55685;BME280;41883;49.544;8.646;2023-05-10T09:04:22;100102.53;;;20.22;nan
55685;BME280;41883;49.544;8.646;2023-05-10T09:06:47;100097.06;;;20.28;nan
55685;BME280;41883;49.544;8.646;2023-05-10T09:09:12;100101.47;;;20.23;nan
55685;BME280;41883;49.544;8.646;2023-05-10T09:11:38;100107.72;;;20.35;nan
55685;BME280;41883;49.544;8.646;2023-05-10T09:14:03;100104.63;;;20.20;nan
55685;BME280;41883;49.544;8.646;2023-05-10T09:16:29;100104.31;;;19.72;nan
55685;BME280;41883;49.544;8.646;2023-05-10T09:18:54;100111.81;;;19.14;nan
55685;BME280;41883;49.544;8.646;2023-05-10T09:21:19;100117.19;;;18.43;nan
55685;BME280;41883;49.544;8.646;2023-05-10T09:28:54;100129.88;;;15.80;nan
55685;BME280;41883;49.544;8.646;2023-05-10T09:31:20;100123.78;;;15.37;nan
55685;BME280;41883;49.544;8.646;2023-05-10T09:33:46;100117.41;;;15.10;nan
55685;BME280;41883;49.544;8.646;2023-05-10T09:36:12;100123.63;;;14.95;nan
55685;BME280;41883;49.544;8.646;2023-05-10T09:38:47;100134.03;;;14.90;nan
55685;BME280;41883;49.544;8.646;2023-05-10T09:41:20;100135.41;;;14.86;nan
55685;BME280;41883;49.544;8.646;2023-05-10T09:43:46;100134.97;;;14.82;nan
55685;BME280;41883;49.544;8.646;2023-05-10T09:46:11;100135.41;;;14.86;nan
55685;BME280;41883;49.544;8.646;2023-05-10T09:48:46;100144.31;;;14.93;nan
55685;BME280;41883;49.544;8.646;2023-05-10T09:51:22;100137.44;;;15.05;nan
55685;BME280;41883;49.544;8.646;2023-05-10T09:53:47;100141.63;;;15.15;nan
55685;BME280;41883;49.544;8.646;2023-05-10T09:56:31;100140.59;;;15.16;nan
55685;BME280;41883;49.544;8.646;2023-05-10T09:59:04;100135.66;;;15.13;nan
55685;BME280;41883;49.544;8.646;2023-05-10T10:01:29;100137.69;;;15.11;nan
55685;BME280;41883;49.544;8.646;2023-05-10T10:03:55;100137.91;;;15.09;nan
55685;BME280;41883;49.544;8.646;2023-05-10T10:06:22;100134.47;;;15.15;nan
55685;BME280;41883;49.544;8.646;2023-05-10T10:08:51;100131.22;;;15.20;nan
55685;BME280;41883;49.544;8.646;2023-05-10T10:11:18;100131.22;;;15.20;nan
55685;BME280;41883;49.544;8.646;2023-05-10T10:13:46;100132.63;;;15.16;nan
55685;BME280;41883;49.544;8.646;2023-05-10T10:16:14;100151.78;;;15.04;nan
55685;BME280;41883;49.544;8.646;2023-05-10T10:18:40;100147.19;;;14.77;nan
55685;BME280;41883;49.544;8.646;2023-05-10T10:21:06;100146.69;;;14.37;nan
55685;BME280;41883;49.544;8.646;2023-05-10T10:23:35;100154.69;;;13.77;nan
55685;BME280;41883;49.544;8.646;2023-05-10T10:26:01;100152.38;;;13.45;nan
55685;BME280;41883;49.544;8.646;2023-05-10T10:28:42;100160.91;;;13.32;nan
55685;BME280;41883;49.544;8.646;2023-05-10T10:34:05;100158.09;;;13.33;nan
55685;BME280;41883;49.544;8.646;2023-05-10T10:36:31;100163.31;;;13.42;nan
55685;BME280;41883;49.544;8.646;2023-05-10T10:39:01;100166.22;;;13.55;nan
55685;BME280;41883;49.544;8.646;2023-05-10T10:41:35;100165.41;;;13.69;nan
55685;BME280;41883;49.544;8.646;2023-05-10T10:52:28;100168.63;;;14.69;nan
55685;BME280;41883;49.544;8.646;2023-05-10T10:57:22;100158.00;;;14.90;nan
55685;BME280;41883;49.544;8.646;2023-05-10T10:59:48;100168.44;;;15.13;nan
55685;BME280;41883;49.544;8.646;2023-05-10T11:04:57;100159.81;;;15.54;nan
55685;BME280;41883;49.544;8.646;2023-05-10T11:07:22;100160.16;;;15.73;nan
55685;BME280;41883;49.544;8.646;2023-05-10T11:09:48;100163.06;;;15.78;nan
55685;BME280;41883;49.544;8.646;2023-05-10T11:12:13;100164.38;;;15.88;nan
55685;BME280;41883;49.544;8.646;2023-05-10T11:14:38;100165.06;;;16.04;nan
55685;BME280;41883;49.544;8.646;2023-05-10T11:17:22;100165.84;;;16.26;nan
55685;BME280;41883;49.544;8.646;2023-05-10T11:20:02;100171.53;;;16.64;nan
55685;BME280;41883;49.544;8.646;2023-05-10T11:22:28;100163.41;;;16.99;nan
55685;BME280;41883;49.544;8.646;2023-05-10T11:24:57;100163.28;;;17.34;nan
55685;BME280;41883;49.544;8.646;2023-05-10T11:27:23;100168.00;;;17.72;nan
55685;BME280;41883;49.544;8.646;2023-05-10T11:29:51;100166.09;;;18.12;nan
55685;BME280;41883;49.544;8.646;2023-05-10T11:32:29;100167.25;;;18.36;nan
55685;BME280;41883;49.544;8.646;2023-05-10T11:35:07;100164.91;;;18.98;nan
55685;BME280;41883;49.544;8.646;2023-05-10T11:37:33;100158.94;;;19.53;nan
55685;BME280;41883;49.544;8.646;2023-05-10T11:40:02;100160.84;;;19.71;nan
55685;BME280;41883;49.544;8.646;2023-05-10T11:42:28;100161.41;;;19.55;nan
55685;BME280;41883;49.544;8.646;2023-05-10T11:44:59;100161.38;;;19.04;nan
55685;BME280;41883;49.544;8.646;2023-05-10T11:47:25;100170.06;;;18.55;nan
55685;BME280;41883;49.544;8.646;2023-05-10T11:49:50;100161.31;;;18.21;nan
55685;BME280;41883;49.544;8.646;2023-05-10T11:52:17;100166.78;;;17.81;nan
55685;BME280;41883;49.544;8.646;2023-05-10T11:54:55;100167.78;;;17.47;nan
55685;BME280;41883;49.544;8.646;2023-05-10T11:57:25;100169.41;;;17.28;nan
55685;BME280;41883;49.544;8.646;2023-05-10T11:59:54;100173.97;;;17.47;nan
55685;BME280;41883;49.544;8.646;2023-05-10T12:02:21;100166.03;;;18.32;nan
55685;BME280;41883;49.544;8.646;2023-05-10T12:05:06;100169.47;;;19.23;nan
55685;BME280;41883;49.544;8.646;2023-05-10T12:07:35;100177.34;;;19.75;nan
55685;BME280;41883;49.544;8.646;2023-05-10T12:10:13;100162.47;;;20.15;nan
55685;BME280;41883;49.544;8.646;2023-05-10T12:12:44;100165.91;;;20.23;nan
55685;BME280;41883;49.544;8.646;2023-05-10T12:20:43;100177.00;;;19.64;nan
55685;BME280;41883;49.544;8.646;2023-05-10T12:23:09;100178.84;;;19.64;nan
55685;BME280;41883;49.544;8.646;2023-05-10T12:25:36;100179.81;;;19.76;nan
55685;BME280;41883;49.544;8.646;2023-05-10T12:28:08;100180.38;;;20.03;nan
55685;BME280;41883;49.544;8.646;2023-05-10T12:30:42;100174.19;;;20.40;nan
55685;BME280;41883;49.544;8.646;2023-05-10T12:33:12;100183.81;;;20.66;nan
55685;BME280;41883;49.544;8.646;2023-05-10T12:35:46;100178.41;;;20.84;nan
55685;BME280;41883;49.544;8.646;2023-05-10T12:40:50;100179.25;;;20.66;nan
55685;BME280;41883;49.544;8.646;2023-05-10T12:43:15;100178.44;;;20.29;nan
55685;BME280;41883;49.544;8.646;2023-05-10T12:45:48;100186.47;;;19.92;nan
55685;BME280;41883;49.544;8.646;2023-05-10T12:48:16;100183.53;;;19.50;nan
55685;BME280;41883;49.544;8.646;2023-05-10T12:50:42;100184.09;;;19.27;nan
55685;BME280;41883;49.544;8.646;2023-05-10T12:53:07;100188.19;;;19.04;nan
55685;BME280;41883;49.544;8.646;2023-05-10T12:55:32;100186.50;;;19.10;nan
55685;BME280;41883;49.544;8.646;2023-05-10T12:57:58;100182.69;;;19.24;nan
55685;BME280;41883;49.544;8.646;2023-05-10T13:00:23;100185.31;;;19.31;nan
55685;BME280;41883;49.544;8.646;2023-05-10T13:02:48;100185.56;;;19.23;nan
55685;BME280;41883;49.544;8.646;2023-05-10T13:05:14;100194.22;;;19.25;nan
55685;BME280;41883;49.544;8.646;2023-05-10T13:07:39;100182.50;;;19.19;nan
55685;BME280;41883;49.544;8.646;2023-05-10T13:10:05;100184.06;;;19.34;nan
55685;BME280;41883;49.544;8.646;2023-05-10T13:12:31;100183.94;;;19.47;nan
55685;BME280;41883;49.544;8.646;2023-05-10T13:14:56;100184.50;;;19.56;nan
55685;BME280;41883;49.544;8.646;2023-05-10T13:17:21;100186.41;;;19.48;nan
55685;BME280;41883;49.544;8.646;2023-05-10T13:19:46;100177.59;;;19.41;nan
55685;BME280;41883;49.544;8.646;2023-05-10T13:22:14;100176.84;;;19.34;nan
55685;BME280;41883;49.544;8.646;2023-05-10T13:24:40;100182.41;;;19.33;nan
55685;BME280;41883;49.544;8.646;2023-05-10T13:27:05;100189.09;;;19.48;nan
55685;BME280;41883;49.544;8.646;2023-05-10T13:29:31;100189.22;;;19.60;nan
55685;BME280;41883;49.544;8.646;2023-05-10T13:31:56;100185.88;;;19.65;nan
55685;BME280;41883;49.544;8.646;2023-05-10T13:34:22;100182.56;;;19.69;nan
55685;BME280;41883;49.544;8.646;2023-05-10T13:36:50;100173.63;;;19.76;nan
55685;BME280;41883;49.544;8.646;2023-05-10T13:39:15;100188.44;;;19.78;nan
55685;BME280;41883;49.544;8.646;2023-05-10T13:41:41;100191.69;;;19.87;nan
55685;BME280;41883;49.544;8.646;2023-05-10T13:44:06;100186.31;;;19.87;nan
55685;BME280;41883;49.544;8.646;2023-05-10T13:46:31;100178.81;;;19.96;nan
55685;BME280;41883;49.544;8.646;2023-05-10T13:48:56;100177.47;;;20.05;nan
55685;BME280;41883;49.544;8.646;2023-05-10T13:51:22;100179.53;;;20.21;nan
55685;BME280;41883;49.544;8.646;2023-05-10T13:53:47;100187.59;;;20.21;nan
55685;BME280;41883;49.544;8.646;2023-05-10T13:56:15;100181.75;;;19.87;nan
55685;BME280;41883;49.544;8.646;2023-05-10T13:58:40;100186.81;;;19.77;nan
55685;BME280;41883;49.544;8.646;2023-05-10T14:01:06;100187.88;;;19.76;nan
55685;BME280;41883;49.544;8.646;2023-05-10T14:03:31;100182.88;;;19.80;nan